QFA8 KDFW-YMML
Flight info
| Callsign | QFA8 |
|---|---|
| Flight time | N/A |
| Altitude | 34000 |
| Route | JPOOL8 SAT DCT LRD DCT EMIRA DCT ZLO DCT 1648N10631W 1436N10817W 1156N11050W 0901N11400W 0606N11712W 0552N11727W 0325N12000W 0244N12042W 0118S12441W 0416S12708W 0814S13010W 0904S13048W 1244S13334W 1633S13638W 2022S13931W 2333S14215W 2713S14529W 3000S14802W 3036S14836W 3248S15112W 3412S15321W 3658S15856W 3806S16204W 3951S16837W 4050S17507W 4113S17738E 4114S17704E 4112S17059E 4111S17025E 4046S16437E 4034S16300E 4010S16017E 3930S15639E DCT GEMAC Q302 BOOIN |
| Aircraft | A388/J-SADE2E3FGHIJ3J4J5M1RWXY/LB1D1 |
Departure
| Time | 2026-05-01 10:02 |
|---|---|
| Airport | Dallas Fort Worth International Airport (KDFW) |
Arrival
| Time | N/A |
|---|---|
| Airport | Melbourne Airport (YMML) |
| Time | Latitude | Longitude | Altitude | Speed | Heading |
|---|---|---|---|---|---|
| 2026-05-01 09:30 | 32.89506 | -97.04570 | 603 ft | 0 kts | 46° |
| 2026-05-01 09:44 | 32.89504 | -97.04574 | 603 ft | 1 kts | 46° |
| 2026-05-01 09:45 | 32.89499 | -97.04579 | 603 ft | 1 kts | 46° |
| 2026-05-01 09:45 | 32.89489 | -97.04591 | 603 ft | 1 kts | 46° |
| 2026-05-01 09:45 | 32.89482 | -97.04600 | 603 ft | 1 kts | 46° |
| 2026-05-01 09:46 | 32.89475 | -97.04609 | 603 ft | 1 kts | 46° |
| 2026-05-01 09:46 | 32.89468 | -97.04617 | 603 ft | 1 kts | 46° |
| 2026-05-01 09:46 | 32.89461 | -97.04626 | 603 ft | 1 kts | 46° |
| 2026-05-01 09:46 | 32.89453 | -97.04636 | 603 ft | 2 kts | 46° |
| 2026-05-01 09:47 | 32.89444 | -97.04648 | 603 ft | 2 kts | 46° |
| 2026-05-01 09:47 | 32.89435 | -97.04659 | 603 ft | 2 kts | 48° |
| 2026-05-01 09:47 | 32.89428 | -97.04672 | 603 ft | 2 kts | 62° |
| 2026-05-01 09:47 | 32.89424 | -97.04687 | 603 ft | 2 kts | 77° |
| 2026-05-01 09:48 | 32.89423 | -97.04703 | 603 ft | 2 kts | 91° |
| 2026-05-01 09:48 | 32.89425 | -97.04718 | 603 ft | 2 kts | 101° |
| 2026-05-01 09:48 | 32.89428 | -97.04733 | 603 ft | 2 kts | 107° |
| 2026-05-01 09:48 | 32.89435 | -97.04747 | 603 ft | 2 kts | 128° |
| 2026-05-01 09:49 | 32.89445 | -97.04756 | 603 ft | 2 kts | 150° |
| 2026-05-01 09:49 | 32.89458 | -97.04760 | 603 ft | 2 kts | 167° |
| 2026-05-01 09:49 | 32.89471 | -97.04763 | 603 ft | 2 kts | 171° |
| 2026-05-01 09:49 | 32.89484 | -97.04765 | 603 ft | 2 kts | 171° |
| 2026-05-01 09:50 | 32.89495 | -97.04766 | 603 ft | 0 kts | 180° |
| 2026-05-01 09:52 | 32.89491 | -97.04766 | 603 ft | 1 kts | 180° |
| 2026-05-01 09:52 | 32.89473 | -97.04767 | 603 ft | 4 kts | 181° |
| 2026-05-01 09:52 | 32.89440 | -97.04767 | 603 ft | 6 kts | 181° |
| 2026-05-01 09:52 | 32.89410 | -97.04775 | 603 ft | 2 kts | 229° |
| 2026-05-01 09:53 | 32.89405 | -97.04784 | 603 ft | 1 kts | 258° |
| 2026-05-01 09:53 | 32.89402 | -97.04811 | 603 ft | 6 kts | 269° |
| 2026-05-01 09:53 | 32.89400 | -97.04865 | 603 ft | 7 kts | 256° |
| 2026-05-01 09:53 | 32.89379 | -97.04903 | 603 ft | 2 kts | 193° |
| 2026-05-01 09:54 | 32.89367 | -97.04902 | 603 ft | 4 kts | 171° |
| 2026-05-01 09:54 | 32.89329 | -97.04895 | 603 ft | 6 kts | 172° |
| 2026-05-01 09:54 | 32.89280 | -97.04891 | 603 ft | 8 kts | 179° |
| 2026-05-01 09:54 | 32.89220 | -97.04888 | 603 ft | 9 kts | 178° |
| 2026-05-01 09:55 | 32.89152 | -97.04890 | 603 ft | 10 kts | 183° |
| 2026-05-01 09:55 | 32.89076 | -97.04894 | 603 ft | 12 kts | 183° |
| 2026-05-01 09:55 | 32.88995 | -97.04892 | 603 ft | 12 kts | 178° |
| 2026-05-01 09:55 | 32.88910 | -97.04891 | 603 ft | 13 kts | 181° |
| 2026-05-01 09:56 | 32.88818 | -97.04893 | 603 ft | 14 kts | 179° |
| 2026-05-01 09:56 | 32.88722 | -97.04892 | 603 ft | 14 kts | 180° |
| 2026-05-01 09:56 | 32.88621 | -97.04893 | 603 ft | 15 kts | 180° |
| 2026-05-01 09:56 | 32.88517 | -97.04894 | 603 ft | 15 kts | 180° |
| 2026-05-01 09:57 | 32.88409 | -97.04895 | 603 ft | 16 kts | 180° |
| 2026-05-01 09:57 | 32.88298 | -97.04896 | 603 ft | 16 kts | 180° |
| 2026-05-01 09:57 | 32.88184 | -97.04896 | 603 ft | 16 kts | 180° |
| 2026-05-01 09:57 | 32.88069 | -97.04896 | 603 ft | 17 kts | 180° |
| 2026-05-01 09:58 | 32.87963 | -97.04897 | 603 ft | 12 kts | 180° |
| 2026-05-01 09:58 | 32.87922 | -97.04900 | 603 ft | 3 kts | 205° |
| 2026-05-01 09:58 | 32.87903 | -97.04917 | 603 ft | 4 kts | 237° |
| 2026-05-01 09:58 | 32.87894 | -97.04950 | 603 ft | 4 kts | 283° |
| 2026-05-01 09:59 | 32.87903 | -97.04993 | 603 ft | 6 kts | 284° |
| 2026-05-01 09:59 | 32.87910 | -97.05049 | 603 ft | 7 kts | 272° |
| 2026-05-01 09:59 | 32.87925 | -97.05086 | 603 ft | 4 kts | 331° |
| 2026-05-01 09:59 | 32.87957 | -97.05094 | 603 ft | 5 kts | 358° |
| 2026-05-01 10:00 | 32.87966 | -97.05094 | 603 ft | 1 kts | 2° |
| 2026-05-01 10:00 | 32.87976 | -97.05093 | 603 ft | 2 kts | 2° |
| 2026-05-01 10:00 | 32.87992 | -97.05093 | 603 ft | 8 kts | 360° |
| 2026-05-01 10:00 | 32.88262 | -97.05091 | 603 ft | 72 kts | 0° |
| 2026-05-01 10:01 | 32.88965 | -97.05088 | 603 ft | 128 kts | 0° |
| 2026-05-01 10:01 | 32.90000 | -97.05081 | 603 ft | 166 kts | 0° |
| 2026-05-01 10:01 | 32.91237 | -97.05073 | 625 ft | 187 kts | 2° |
| 2026-05-01 10:01 | 32.92506 | -97.05084 | 1101 ft | 177 kts | 0° |
| 2026-05-01 10:02 | 32.93710 | -97.05207 | 1599 ft | 173 kts | 345° |
| 2026-05-01 10:02 | 32.94780 | -97.05965 | 1880 ft | 190 kts | 317° |
| 2026-05-01 10:02 | 32.95485 | -97.07334 | 2112 ft | 204 kts | 291° |
| 2026-05-01 10:02 | 32.95688 | -97.09031 | 2365 ft | 214 kts | 265° |
| 2026-05-01 10:03 | 32.95217 | -97.10738 | 2573 ft | 223 kts | 234° |
| 2026-05-01 10:03 | 32.94165 | -97.12076 | 2740 ft | 223 kts | 219° |
| 2026-05-01 10:03 | 32.93361 | -97.12892 | 2796 ft | 227 kts | 218° |
| 2026-05-01 10:03 | 32.91639 | -97.14365 | 2849 ft | 233 kts | 197° |
| 2026-05-01 10:04 | 32.90555 | -97.14630 | 2914 ft | 240 kts | 180° |
| 2026-05-01 10:04 | 32.88860 | -97.14727 | 3078 ft | 255 kts | 179° |
| 2026-05-01 10:04 | 32.87024 | -97.14798 | 3320 ft | 268 kts | 179° |
| 2026-05-01 10:04 | 32.85142 | -97.14888 | 3796 ft | 272 kts | 180° |
| 2026-05-01 10:05 | 32.83241 | -97.14998 | 4316 ft | 274 kts | 180° |
| 2026-05-01 10:05 | 32.81315 | -97.15120 | 4810 ft | 278 kts | 181° |
| 2026-05-01 10:05 | 32.79376 | -97.15248 | 5335 ft | 281 kts | 182° |
| 2026-05-01 10:05 | 32.77423 | -97.15378 | 5874 ft | 282 kts | 182° |
| 2026-05-01 10:06 | 32.75461 | -97.15509 | 6380 ft | 284 kts | 183° |
| 2026-05-01 10:06 | 32.73484 | -97.15641 | 6888 ft | 286 kts | 184° |
| 2026-05-01 10:06 | 32.71484 | -97.15773 | 7354 ft | 289 kts | 184° |
| 2026-05-01 10:06 | 32.69475 | -97.15906 | 7863 ft | 290 kts | 184° |
| 2026-05-01 10:07 | 32.67450 | -97.16038 | 8361 ft | 292 kts | 185° |
| 2026-05-01 10:07 | 32.65414 | -97.16172 | 8844 ft | 294 kts | 185° |
| 2026-05-01 10:07 | 32.63353 | -97.16309 | 9291 ft | 298 kts | 186° |
| 2026-05-01 10:07 | 32.61301 | -97.16444 | 9772 ft | 301 kts | 186° |
| 2026-05-01 10:08 | 32.57035 | -97.16728 | 10321 ft | 319 kts | 186° |
| 2026-05-01 10:08 | 32.54776 | -97.16879 | 10466 ft | 331 kts | 186° |
| 2026-05-01 10:08 | 32.52430 | -97.17036 | 10593 ft | 344 kts | 186° |
| 2026-05-01 10:09 | 32.50008 | -97.17194 | 10833 ft | 351 kts | 187° |
| 2026-05-01 10:09 | 32.47568 | -97.17351 | 11344 ft | 350 kts | 187° |
| 2026-05-01 10:09 | 32.45123 | -97.17507 | 11757 ft | 353 kts | 187° |
| 2026-05-01 10:09 | 32.42670 | -97.17666 | 12228 ft | 353 kts | 188° |
| 2026-05-01 10:10 | 32.40215 | -97.17827 | 12691 ft | 354 kts | 188° |
| 2026-05-01 10:10 | 32.37753 | -97.17988 | 13112 ft | 355 kts | 188° |
| 2026-05-01 10:10 | 32.32805 | -97.18311 | 13998 ft | 358 kts | 189° |
| 2026-05-01 10:11 | 32.30349 | -97.18472 | 14393 ft | 358 kts | 189° |
| 2026-05-01 10:11 | 32.27859 | -97.18661 | 14772 ft | 358 kts | 193° |
| 2026-05-01 10:11 | 32.25388 | -97.19005 | 15166 ft | 358 kts | 194° |
| 2026-05-01 10:11 | 32.22917 | -97.19343 | 15580 ft | 359 kts | 194° |
| 2026-05-01 10:12 | 32.20428 | -97.19678 | 15955 ft | 360 kts | 195° |
| 2026-05-01 10:12 | 32.17935 | -97.20012 | 16354 ft | 361 kts | 195° |
| 2026-05-01 10:12 | 32.12932 | -97.20684 | 17019 ft | 365 kts | 194° |
| 2026-05-01 10:13 | 32.10382 | -97.21027 | 17279 ft | 369 kts | 194° |
| 2026-05-01 10:13 | 32.07830 | -97.21366 | 17666 ft | 370 kts | 194° |
| 2026-05-01 10:13 | 32.05257 | -97.21709 | 18009 ft | 372 kts | 195° |
| 2026-05-01 10:14 | 32.00088 | -97.22399 | 18691 ft | 374 kts | 195° |
| 2026-05-01 10:14 | 31.97503 | -97.22742 | 19041 ft | 374 kts | 195° |
| 2026-05-01 10:14 | 31.94957 | -97.23080 | 19379 ft | 373 kts | 195° |
| 2026-05-01 10:14 | 31.92376 | -97.23424 | 19697 ft | 374 kts | 195° |
| 2026-05-01 10:15 | 31.89793 | -97.23768 | 20020 ft | 374 kts | 195° |
| 2026-05-01 10:15 | 31.87210 | -97.24112 | 20352 ft | 373 kts | 195° |
| 2026-05-01 10:15 | 31.84628 | -97.24457 | 20629 ft | 374 kts | 194° |
| 2026-05-01 10:15 | 31.82031 | -97.24802 | 20933 ft | 375 kts | 194° |
| 2026-05-01 10:16 | 31.79444 | -97.25146 | 21231 ft | 375 kts | 194° |
| 2026-05-01 10:16 | 31.76850 | -97.25490 | 21526 ft | 375 kts | 194° |
| 2026-05-01 10:16 | 31.71649 | -97.26180 | 22131 ft | 376 kts | 193° |
| 2026-05-01 10:17 | 31.69052 | -97.26525 | 22415 ft | 376 kts | 194° |
| 2026-05-01 10:17 | 31.64025 | -97.27917 | 22962 ft | 368 kts | 205° |
| 2026-05-01 10:17 | 31.61651 | -97.29044 | 23228 ft | 368 kts | 207° |
| 2026-05-01 10:18 | 31.56893 | -97.31310 | 23660 ft | 371 kts | 206° |
| 2026-05-01 10:18 | 31.54492 | -97.32439 | 23894 ft | 372 kts | 206° |
| 2026-05-01 10:18 | 31.52092 | -97.33566 | 24136 ft | 372 kts | 206° |
| 2026-05-01 10:19 | 32.89506 | -97.04570 | 24143 ft | 6 kts | 46° |